Time;durP1;ratioP1;P1;durP2;ratioP2;P2;SDS_P1;SDS_P2;PMS_P1;PMS_P2;Temp;Humidity;BMP_temperature;BMP_pressure;BME280_temperature;BME280_humidity;BME280_pressure;Samples;Min_cycle;Max_cycle;Signal;HPM_P1;HPM_P2
2024/04/07 00:01:31;;;;;;;;;3.00;2.00;;;;;;;;5101347;27;45219;-57
2024/04/07 00:03:57;;;;;;;;;3.00;2.00;;;;;;;;5102066;27;45447;-57
2024/04/07 00:06:22;;;;;;;;;2.00;1.33;;;;;;;;5088829;27;45441;-58
2024/04/07 00:08:47;;;;;;;;;1.67;1.67;;;;;;;;5062311;28;45280;-56
2024/04/07 00:11:12;;;;;;;;;3.00;1.25;;;;;;;;5098301;27;45236;-57
2024/04/07 00:13:38;;;;;;;;;3.00;1.00;;;;;;;;5101036;27;45220;-57
2024/04/07 00:16:03;;;;;;;;;1.00;1.00;;;;;;;;5092646;27;45349;-58
2024/04/07 00:18:28;;;;;;;;;2.00;0.50;;;;;;;;5079125;27;45887;-57
2024/04/07 00:21:03;;;;;;;;;3.00;1.00;;;;;;;;5088721;27;45320;-57
2024/04/07 00:23:28;;;;;;;;;1.00;1.00;;;;;;;;5082849;27;45390;-57
2024/04/07 00:25:53;;;;;;;;;1.50;1.00;;;;;;;;5071513;27;46272;-57
2024/04/07 00:28:18;;;;;;;;;0.75;0.75;;;;;;;;5089272;27;45212;-57
2024/04/07 00:30:44;;;;;;;;;0.75;0.75;;;;;;;;5083060;27;45311;-57
2024/04/07 00:33:09;;;;;;;;;0.00;0.00;;;;;;;;5096006;27;45207;-57
2024/04/07 00:35:34;;;;;;;;;1.50;1.25;;;;;;;;5085246;27;45419;-57
2024/04/07 00:37:59;;;;;;;;;0.00;0.00;;;;;;;;5082540;27;45363;-57
2024/04/07 00:40:24;;;;;;;;;1.00;1.00;;;;;;;;5085978;27;45638;-57
2024/04/07 00:42:49;;;;;;;;;2.00;0.00;;;;;;;;5094249;27;45369;-57
2024/04/07 00:45:15;;;;;;;;;0.00;0.00;;;;;;;;5088391;27;45532;-57
2024/04/07 00:47:40;;;;;;;;;0.67;0.00;;;;;;;;5097299;27;45401;-57
2024/04/07 00:50:06;;;;;;;;;0.00;0.00;;;;;;;;5088753;27;45699;-58
2024/04/07 00:52:31;;;;;;;;;3.00;0.00;;;;;;;;5090758;27;45591;-57
2024/04/07 00:54:57;;;;;;;;;0.00;0.00;;;;;;;;5093747;27;45451;-57
2024/04/07 00:57:24;;;;;;;;;1.00;0.00;;;;;;;;5084837;27;45408;-57
2024/04/07 00:59:49;;;;;;;;;0.00;0.00;;;;;;;;5099566;27;45458;-57
2024/04/07 01:02:14;;;;;;;;;1.00;0.00;;;;;;;;5090255;27;45333;-58
2024/04/07 01:04:40;;;;;;;;;0.00;0.00;;;;;;;;5084558;27;45749;-58
2024/04/07 01:07:05;;;;;;;;;3.00;0.00;;;;;;;;5095856;27;46371;-58
2024/04/07 01:09:31;;;;;;;;;0.00;0.00;;;;;;;;5097853;27;45319;-58
2024/04/07 01:11:56;;;;;;;;;2.00;0.00;;;;;;;;5084229;27;45639;-58
2024/04/07 01:14:21;;;;;;;;;0.00;0.00;;;;;;;;5093120;27;45630;-58
2024/04/07 01:16:46;;;;;;;;;1.00;1.00;;;;;;;;5085955;27;45478;-60
2024/04/07 01:19:11;;;;;;;;;0.25;0.25;;;;;;;;5099887;27;45548;-58
2024/04/07 01:21:37;;;;;;;;;1.50;0.00;;;;;;;;5099813;27;46574;-57
2024/04/07 01:24:02;;;;;;;;;0.00;0.00;;;;;;;;5086671;27;45386;-57
2024/04/07 01:26:28;;;;;;;;;0.25;0.25;;;;;;;;5096211;27;45476;-57
2024/04/07 01:28:53;;;;;;;;;0.00;0.00;;;;;;;;5099304;27;45254;-58
2024/04/07 01:31:18;;;;;;;;;0.00;0.00;;;;;;;;5099151;27;45206;-57
2024/04/07 01:33:43;;;;;;;;;0.25;0.00;;;;;;;;5095981;27;46433;-57
2024/04/07 01:36:09;;;;;;;;;1.00;0.67;;;;;;;;5062391;27;45298;-57
2024/04/07 01:38:34;;;;;;;;;0.50;0.00;;;;;;;;5098570;27;45616;-57
2024/04/07 01:40:59;;;;;;;;;0.50;0.00;;;;;;;;5091746;27;45236;-57
2024/04/07 01:43:24;;;;;;;;;0.00;0.00;;;;;;;;5097467;27;46312;-57
2024/04/07 01:45:49;;;;;;;;;0.00;0.00;;;;;;;;5081047;27;45478;-57
2024/04/07 01:48:14;;;;;;;;;1.00;0.00;;;;;;;;5083835;27;45428;-57
2024/04/07 01:50:40;;;;;;;;;0.00;0.00;;;;;;;;5081064;27;45308;-57
2024/04/07 01:53:05;;;;;;;;;0.00;0.00;;;;;;;;5093873;27;46184;-58
2024/04/07 01:55:30;;;;;;;;;2.00;0.33;;;;;;;;5082683;27;45472;-57
2024/04/07 01:57:55;;;;;;;;;0.00;0.00;;;;;;;;5087271;27;45790;-57
2024/04/07 02:00:21;;;;;;;;;0.00;0.00;;;;;;;;5093374;27;45343;-57
2024/04/07 02:02:46;;;;;;;;;3.00;0.00;;;;;;;;5083172;27;46217;-56
2024/04/07 02:05:12;;;;;;;;;0.00;0.00;;;;;;;;5085664;27;45771;-56
2024/04/07 02:07:37;;;;;;;;;1.00;0.00;;;;;;;;5083791;27;45366;-56
2024/04/07 02:10:02;;;;;;;;;2.25;0.00;;;;;;;;5085558;27;45545;-57
2024/04/07 02:12:28;;;;;;;;;0.00;0.00;;;;;;;;5091115;27;46383;-57
2024/04/07 02:14:54;;;;;;;;;0.00;0.00;;;;;;;;5079429;27;45266;-56
2024/04/07 02:17:20;;;;;;;;;1.00;1.00;;;;;;;;5080003;27;45469;-57
2024/04/07 02:19:46;;;;;;;;;0.00;0.00;;;;;;;;5084257;27;45627;-57
2024/04/07 02:22:11;;;;;;;;;3.00;1.00;;;;;;;;5091360;27;45477;-58
2024/04/07 02:24:36;;;;;;;;;0.00;0.00;;;;;;;;5092766;27;45337;-57
2024/04/07 02:27:02;;;;;;;;;0.75;0.75;;;;;;;;5094674;27;45246;-57
2024/04/07 02:29:28;;;;;;;;;1.00;0.00;;;;;;;;5080855;27;45535;-57
2024/04/07 02:31:53;;;;;;;;;0.00;0.00;;;;;;;;5090961;27;46214;-58
2024/04/07 02:34:18;;;;;;;;;0.50;0.25;;;;;;;;5088488;27;45355;-58
2024/04/07 02:36:43;;;;;;;;;0.00;0.00;;;;;;;;5094521;27;45572;-58
2024/04/07 02:39:09;;;;;;;;;1.33;0.00;;;;;;;;5086095;27;45660;-58
2024/04/07 02:41:36;;;;;;;;;0.00;0.00;;;;;;;;5102138;27;46216;-58
2024/04/07 02:44:03;;;;;;;;;2.00;0.00;;;;;;;;5089840;27;45382;-57
2024/04/07 02:49:12;;;;;;;;;0.00;0.00;;;;;;;;5100828;27;45444;-57
2024/04/07 02:51:37;;;;;;;;;0.25;0.25;;;;;;;;5098684;27;45604;-57
2024/04/07 02:54:02;;;;;;;;;0.00;0.00;;;;;;;;5085509;27;45248;-58
2024/04/07 02:56:27;;;;;;;;;0.00;0.00;;;;;;;;5086839;27;45369;-57
2024/04/07 02:58:53;;;;;;;;;0.00;0.00;;;;;;;;5093886;27;45359;-58
2024/04/07 03:01:18;;;;;;;;;2.00;0.00;;;;;;;;5099348;27;47109;-58
2024/04/07 03:03:46;;;;;;;;;0.00;0.00;;;;;;;;5099840;27;45297;-59
2024/04/07 03:06:12;;;;;;;;;1.00;0.00;;;;;;;;5086493;27;45185;-58
2024/04/07 03:08:37;;;;;;;;;0.00;0.00;;;;;;;;5087295;27;45284;-59
2024/04/07 03:11:03;;;;;;;;;0.00;0.00;;;;;;;;5092201;27;45428;-58
2024/04/07 03:13:28;;;;;;;;;2.00;0.00;;;;;;;;5088838;27;45315;-58
2024/04/07 03:15:54;;;;;;;;;0.00;0.00;;;;;;;;5100826;27;45991;-58
2024/04/07 03:18:22;;;;;;;;;0.00;0.00;;;;;;;;5090946;27;45652;-58
2024/04/07 03:20:47;;;;;;;;;0.00;0.00;;;;;;;;5093369;27;45421;-58
2024/04/07 03:23:12;;;;;;;;;0.00;0.00;;;;;;;;5088282;27;45332;-59
2024/04/07 03:25:38;;;;;;;;;0.00;0.00;;;;;;;;5100059;27;45453;-59
2024/04/07 03:28:04;;;;;;;;;1.00;0.50;;;;;;;;5092957;27;45421;-59
2024/04/07 03:30:29;;;;;;;;;2.50;0.25;;;;;;;;5096058;27;45303;-59
2024/04/07 03:32:54;;;;;;;;;2.00;0.75;;;;;;;;5098681;27;45326;-56
2024/04/07 03:35:19;;;;;;;;;0.00;0.00;;;;;;;;5070781;27;46528;-57
2024/04/07 03:37:44;;;;;;;;;0.00;0.00;;;;;;;;5075597;28;45483;-57
2024/04/07 03:40:10;;;;;;;;;1.00;0.00;;;;;;;;5086149;27;45570;-57
2024/04/07 03:42:35;;;;;;;;;0.00;0.00;;;;;;;;5087223;27;45322;-57
2024/04/07 03:45:00;;;;;;;;;0.25;0.00;;;;;;;;5097183;27;45534;-57
2024/04/07 03:47:25;;;;;;;;;0.00;0.00;;;;;;;;5090580;27;45304;-57
2024/04/07 03:49:50;;;;;;;;;1.00;0.00;;;;;;;;5089404;27;45342;-57
2024/04/07 03:52:15;;;;;;;;;0.00;0.00;;;;;;;;5093952;27;45442;-57
2024/04/07 03:54:41;;;;;;;;;2.50;0.00;;;;;;;;5096757;27;45302;-57
2024/04/07 03:57:06;;;;;;;;;0.00;0.00;;;;;;;;5082361;27;45348;-57
2024/04/07 03:59:31;;;;;;;;;1.00;1.00;;;;;;;;5086399;27;45622;-57
2024/04/07 04:02:00;;;;;;;;;3.33;0.00;;;;;;;;5098198;27;45483;-56
2024/04/07 04:04:25;;;;;;;;;1.67;0.00;;;;;;;;5101111;27;45267;-57
2024/04/07 04:06:51;;;;;;;;;0.33;0.00;;;;;;;;5094201;27;45232;-57
2024/04/07 04:09:16;;;;;;;;;0.00;0.00;;;;;;;;5080698;27;45780;-57
2024/04/07 04:11:41;;;;;;;;;0.00;0.00;;;;;;;;5085048;27;45405;-57
2024/04/07 04:14:06;;;;;;;;;0.00;0.00;;;;;;;;5093906;27;45602;-57
2024/04/07 04:16:32;;;;;;;;;1.00;0.00;;;;;;;;5081430;27;45419;-57
2024/04/07 04:18:57;;;;;;;;;0.25;0.25;;;;;;;;5076060;27;46212;-61
2024/04/07 04:21:22;;;;;;;;;1.00;0.00;;;;;;;;5095930;27;45403;-57
2024/04/07 04:23:47;;;;;;;;;0.50;0.50;;;;;;;;5087761;27;45603;-57
2024/04/07 04:26:12;;;;;;;;;2.00;1.00;;;;;;;;5086050;27;45421;-57
2024/04/07 04:28:38;;;;;;;;;0.25;0.25;;;;;;;;5089854;27;45398;-57
2024/04/07 04:31:06;;;;;;;;;1.75;0.00;;;;;;;;5085937;27;45504;-57
2024/04/07 04:33:32;;;;;;;;;1.00;0.75;;;;;;;;5098087;27;45468;-57
2024/04/07 04:35:57;;;;;;;;;0.00;0.00;;;;;;;;5094334;27;45424;-57
2024/04/07 04:38:22;;;;;;;;;3.25;0.25;;;;;;;;5084739;27;46383;-57
2024/04/07 04:40:51;;;;;;;;;0.25;0.25;;;;;;;;5084254;27;45369;-57
2024/04/07 04:43:18;;;;;;;;;0.00;0.00;;;;;;;;5094946;27;45762;-57
2024/04/07 04:45:44;;;;;;;;;2.33;1.00;;;;;;;;5089049;27;45451;-57
2024/04/07 04:48:09;;;;;;;;;2.00;0.00;;;;;;;;5087995;27;46343;-57
2024/04/07 04:50:34;;;;;;;;;5.00;0.00;;;;;;;;5098072;27;45264;-57
2024/04/07 04:52:59;;;;;;;;;0.00;0.00;;;;;;;;5089287;27;45332;-57
2024/04/07 04:55:24;;;;;;;;;0.50;0.00;;;;;;;;5093634;27;45325;-57
2024/04/07 04:57:49;;;;;;;;;0.00;0.00;;;;;;;;5066012;27;47898;-57
2024/04/07 05:00:15;;;;;;;;;0.00;0.00;;;;;;;;5100011;27;45493;-57
2024/04/07 05:02:41;;;;;;;;;1.25;0.50;;;;;;;;5087540;27;45429;-57
2024/04/07 05:05:06;;;;;;;;;1.50;0.25;;;;;;;;5086768;27;45597;-57
2024/04/07 05:07:34;;;;;;;;;2.00;0.00;;;;;;;;5086875;27;45316;-57
2024/04/07 05:09:59;;;;;;;;;0.00;0.00;;;;;;;;5087977;27;45433;-57
2024/04/07 05:12:25;;;;;;;;;2.00;1.00;;;;;;;;5086409;27;45373;-57
2024/04/07 05:14:50;;;;;;;;;0.67;0.67;;;;;;;;5085507;27;45628;-57
2024/04/07 05:17:15;;;;;;;;;0.67;0.00;;;;;;;;5089218;27;45426;-57
2024/04/07 05:19:40;;;;;;;;;0.00;0.00;;;;;;;;5088430;27;45392;-57
2024/04/07 05:22:05;;;;;;;;;0.67;0.67;;;;;;;;5099303;27;45379;-56
2024/04/07 05:24:32;;;;;;;;;0.67;0.67;;;;;;;;5100439;27;45205;-57
2024/04/07 05:26:58;;;;;;;;;1.67;1.00;;;;;;;;5091629;27;46418;-57
2024/04/07 05:29:23;;;;;;;;;0.50;0.00;;;;;;;;5091643;27;45462;-56
2024/04/07 05:31:50;;;;;;;;;0.00;0.00;;;;;;;;5083944;27;45616;-57
2024/04/07 05:34:15;;;;;;;;;0.00;0.00;;;;;;;;5084964;27;45375;-57
2024/04/07 05:36:40;;;;;;;;;1.00;0.00;;;;;;;;5090114;27;45990;-57
2024/04/07 05:39:06;;;;;;;;;0.67;0.67;;;;;;;;5090562;27;45351;-57
2024/04/07 05:41:32;;;;;;;;;1.00;1.00;;;;;;;;5093724;27;45521;-57
2024/04/07 05:43:57;;;;;;;;;1.00;1.00;;;;;;;;5087026;27;45129;-57
2024/04/07 05:46:23;;;;;;;;;0.75;0.75;;;;;;;;5087342;27;45613;-57
2024/04/07 05:48:48;;;;;;;;;2.00;0.50;;;;;;;;5083526;27;45343;-57
2024/04/07 05:51:14;;;;;;;;;1.00;1.00;;;;;;;;5063968;27;45578;-57
2024/04/07 05:53:39;;;;;;;;;0.00;0.00;;;;;;;;5092770;27;45438;-57
2024/04/07 05:56:09;;;;;;;;;1.00;1.00;;;;;;;;5090253;27;46365;-57
2024/04/07 05:58:34;;;;;;;;;2.00;1.00;;;;;;;;5083017;27;45355;-57
2024/04/07 06:00:59;;;;;;;;;0.00;0.00;;;;;;;;5094672;27;45314;-57
2024/04/07 06:03:24;;;;;;;;;0.33;0.33;;;;;;;;5097560;27;45299;-57
2024/04/07 06:05:50;;;;;;;;;2.00;0.00;;;;;;;;5089156;27;46479;-57
2024/04/07 06:08:15;;;;;;;;;2.75;0.00;;;;;;;;5085640;27;45392;-57
2024/04/07 06:10:40;;;;;;;;;0.00;0.00;;;;;;;;5096941;27;45603;-57
2024/04/07 06:13:05;;;;;;;;;0.67;0.67;;;;;;;;5092270;27;45515;-57
2024/04/07 06:15:31;;;;;;;;;1.33;0.00;;;;;;;;5088754;27;46377;-57
2024/04/07 06:17:56;;;;;;;;;1.25;1.25;;;;;;;;5071387;28;45691;-57
2024/04/07 06:20:21;;;;;;;;;1.67;0.00;;;;;;;;5092021;27;45350;-57
2024/04/07 06:22:47;;;;;;;;;0.00;0.00;;;;;;;;5085391;27;45283;-57
2024/04/07 06:25:12;;;;;;;;;0.00;0.00;;;;;;;;5083923;27;46384;-57
2024/04/07 06:27:37;;;;;;;;;2.00;0.00;;;;;;;;5067302;27;45278;-56
2024/04/07 06:30:03;;;;;;;;;0.00;0.00;;;;;;;;5067916;28;45440;-57
2024/04/07 06:32:29;;;;;;;;;0.00;0.00;;;;;;;;5086085;27;45533;-57
2024/04/07 06:34:54;;;;;;;;;0.00;0.00;;;;;;;;5084827;27;46687;-57
2024/04/07 06:37:19;;;;;;;;;2.33;0.00;;;;;;;;5085864;27;45458;-57
2024/04/07 06:39:44;;;;;;;;;1.00;1.00;;;;;;;;5086151;27;45204;-57
2024/04/07 06:42:10;;;;;;;;;2.00;0.00;;;;;;;;5090878;27;45446;-57
2024/04/07 06:44:35;;;;;;;;;2.75;0.00;;;;;;;;5085580;27;46406;-60
2024/04/07 06:47:03;;;;;;;;;3.00;0.00;;;;;;;;5096035;27;45508;-59
2024/04/07 06:49:29;;;;;;;;;2.00;0.00;;;;;;;;5081420;27;45649;-58
2024/04/07 06:51:54;;;;;;;;;0.00;0.00;;;;;;;;5091586;27;45350;-57
2024/04/07 06:54:19;;;;;;;;;2.33;1.00;;;;;;;;5092272;27;45701;-58
2024/04/07 06:56:45;;;;;;;;;0.00;0.00;;;;;;;;5095132;27;45673;-58
2024/04/07 06:59:10;;;;;;;;;1.00;1.00;;;;;;;;5091899;27;46010;-58
2024/04/07 07:01:35;;;;;;;;;1.33;0.00;;;;;;;;5086649;27;45332;-57
2024/04/07 07:04:00;;;;;;;;;0.00;0.00;;;;;;;;5084958;27;45302;-59
2024/04/07 07:06:25;;;;;;;;;0.75;0.75;;;;;;;;5081260;27;45328;-58
2024/04/07 07:08:50;;;;;;;;;1.50;0.00;;;;;;;;5079285;27;45502;-58
2024/04/07 07:11:16;;;;;;;;;0.00;0.00;;;;;;;;5090751;27;45464;-58
2024/04/07 07:13:44;;;;;;;;;1.00;1.00;;;;;;;;5085089;27;45598;-59
2024/04/07 07:16:09;;;;;;;;;1.00;0.00;;;;;;;;5083309;27;45417;-58
2024/04/07 07:18:35;;;;;;;;;0.00;0.00;;;;;;;;5092550;27;45368;-58
2024/04/07 07:21:00;;;;;;;;;0.67;0.67;;;;;;;;5086742;27;45544;-58
2024/04/07 07:23:26;;;;;;;;;0.00;0.00;;;;;;;;5086775;27;45443;-56
2024/04/07 07:25:52;;;;;;;;;0.33;0.00;;;;;;;;5087210;27;45284;-57
2024/04/07 07:28:17;;;;;;;;;0.25;0.25;;;;;;;;5090919;27;45418;-57
2024/04/07 07:30:42;;;;;;;;;1.00;0.00;;;;;;;;5096604;27;45554;-57
2024/04/07 07:33:07;;;;;;;;;0.67;0.67;;;;;;;;5097350;27;45399;-57
2024/04/07 07:35:33;;;;;;;;;0.00;0.00;;;;;;;;5090391;27;45459;-54
2024/04/07 07:37:58;;;;;;;;;0.25;0.25;;;;;;;;5088814;27;45456;-54
2024/04/07 07:40:23;;;;;;;;;0.75;0.75;;;;;;;;5090286;27;45405;-55
2024/04/07 07:42:48;;;;;;;;;0.75;0.50;;;;;;;;5092210;27;46433;-55
2024/04/07 07:45:16;;;;;;;;;1.00;0.00;;;;;;;;5087911;27;45470;-54
2024/04/07 07:47:41;;;;;;;;;0.00;0.00;;;;;;;;5068220;27;45313;-54
2024/04/07 07:50:06;;;;;;;;;0.00;0.00;;;;;;;;5096543;27;45350;-55
2024/04/07 07:52:31;;;;;;;;;1.25;0.25;;;;;;;;5095935;27;46288;-55
2024/04/07 07:54:57;;;;;;;;;1.00;1.00;;;;;;;;5091818;27;45463;-53
2024/04/07 07:57:22;;;;;;;;;0.00;0.00;;;;;;;;5098088;27;45426;-54
2024/04/07 07:59:47;;;;;;;;;1.00;1.00;;;;;;;;5095761;27;45346;-54
2024/04/07 08:02:12;;;;;;;;;0.67;0.67;;;;;;;;5093691;27;46563;-55
2024/04/07 08:04:38;;;;;;;;;0.00;0.00;;;;;;;;5098444;27;45280;-55
2024/04/07 08:07:03;;;;;;;;;0.25;0.25;;;;;;;;5096301;27;45272;-55
2024/04/07 08:09:28;;;;;;;;;1.00;1.00;;;;;;;;5098086;27;45503;-53
2024/04/07 08:11:53;;;;;;;;;0.00;0.00;;;;;;;;5091776;27;45350;-54
2024/04/07 08:14:19;;;;;;;;;1.50;0.75;;;;;;;;5070773;27;45314;-54
2024/04/07 08:16:44;;;;;;;;;0.00;0.00;;;;;;;;5097307;27;46686;-54
2024/04/07 08:19:10;;;;;;;;;0.75;0.75;;;;;;;;5098583;27;45293;-55
2024/04/07 08:21:35;;;;;;;;;1.00;1.00;;;;;;;;5091870;27;46588;-52
2024/04/07 08:24:00;;;;;;;;;0.00;0.00;;;;;;;;5095729;27;46523;-53
2024/04/07 08:26:25;;;;;;;;;0.00;0.00;;;;;;;;5082763;27;45412;-53
2024/04/07 08:28:50;;;;;;;;;0.00;0.00;;;;;;;;5085714;27;45545;-52
2024/04/07 08:31:16;;;;;;;;;2.33;2.33;;;;;;;;5068695;28;47489;-52
2024/04/07 08:33:41;;;;;;;;;1.50;0.00;;;;;;;;5083726;27;45337;-53
2024/04/07 08:36:06;;;;;;;;;2.50;1.00;;;;;;;;5087912;27;45373;-52
2024/04/07 08:38:31;;;;;;;;;1.00;0.00;;;;;;;;5098889;27;45385;-51
2024/04/07 08:40:56;;;;;;;;;0.00;0.00;;;;;;;;5096586;27;46499;-52
2024/04/07 08:43:23;;;;;;;;;0.25;0.25;;;;;;;;5085071;27;45266;-50
2024/04/07 08:45:49;;;;;;;;;1.00;0.00;;;;;;;;5099157;27;45609;-48
2024/04/07 08:48:17;;;;;;;;;3.00;0.25;;;;;;;;5071913;27;45442;-49
2024/04/07 08:50:43;;;;;;;;;0.33;0.33;;;;;;;;5086174;27;46217;-51
2024/04/07 08:53:09;;;;;;;;;1.00;0.00;;;;;;;;5073673;27;45520;-52
2024/04/07 08:55:35;;;;;;;;;2.00;0.00;;;;;;;;5094280;27;45266;-52
2024/04/07 08:58:03;;;;;;;;;0.75;0.75;;;;;;;;5095015;27;45353;-54
2024/04/07 09:00:29;;;;;;;;;1.00;1.00;;;;;;;;5082423;27;46480;-54
2024/04/07 09:02:54;;;;;;;;;0.00;0.00;;;;;;;;5079645;27;45880;-55
2024/04/07 09:05:20;;;;;;;;;0.00;0.00;;;;;;;;5096601;27;45409;-50
2024/04/07 09:07:45;;;;;;;;;1.00;1.00;;;;;;;;5083630;27;45520;-52
2024/04/07 09:10:10;;;;;;;;;1.00;0.00;;;;;;;;5093966;27;45616;-52
2024/04/07 09:12:35;;;;;;;;;0.00;0.00;;;;;;;;5098887;27;45295;-47
2024/04/07 09:15:01;;;;;;;;;0.00;0.00;;;;;;;;5097049;27;45690;-52
2024/04/07 09:17:28;;;;;;;;;0.00;0.00;;;;;;;;5095622;27;45480;-55
2024/04/07 09:19:54;;;;;;;;;3.00;1.75;;;;;;;;5100213;27;45311;-51
2024/04/07 09:22:19;;;;;;;;;0.75;0.50;;;;;;;;5094501;27;45352;-47
2024/04/07 09:24:45;;;;;;;;;0.50;0.50;;;;;;;;5096649;27;45477;-46
2024/04/07 09:27:12;;;;;;;;;0.00;0.00;;;;;;;;5094201;27;45437;-49
2024/04/07 09:29:39;;;;;;;;;1.00;1.00;;;;;;;;5100039;27;45563;-50
2024/04/07 09:32:04;;;;;;;;;2.00;1.00;;;;;;;;5095849;27;45420;-49
2024/04/07 09:34:31;;;;;;;;;0.25;0.00;;;;;;;;5100356;27;45674;-46
2024/04/07 09:36:57;;;;;;;;;1.00;1.00;;;;;;;;5093408;27;45531;-47
2024/04/07 09:39:24;;;;;;;;;2.00;0.00;;;;;;;;5099318;27;46249;-46
2024/04/07 09:41:51;;;;;;;;;0.00;0.00;;;;;;;;5092909;27;45548;-47
2024/04/07 09:44:18;;;;;;;;;0.50;0.25;;;;;;;;5099569;27;45553;-51
2024/04/07 09:46:44;;;;;;;;;1.25;0.00;;;;;;;;5096674;27;45466;-46
2024/04/07 09:49:10;;;;;;;;;2.00;0.00;;;;;;;;5096187;27;46378;-47
2024/04/07 09:51:40;;;;;;;;;0.75;0.75;;;;;;;;5095359;27;45438;-49
2024/04/07 09:54:11;;;;;;;;;0.50;0.50;;;;;;;;5096649;27;45361;-47
2024/04/07 09:56:37;;;;;;;;;0.00;0.00;;;;;;;;5091802;27;45323;-51
2024/04/07 09:59:02;;;;;;;;;0.00;0.00;;;;;;;;5098689;27;46281;-50
2024/04/07 10:01:28;;;;;;;;;0.50;0.50;;;;;;;;5096698;27;45674;-49
2024/04/07 10:03:53;;;;;;;;;0.00;0.00;;;;;;;;5097478;27;45912;-47
2024/04/07 10:06:19;;;;;;;;;0.00;0.00;;;;;;;;5084485;27;45402;-50
2024/04/07 10:08:45;;;;;;;;;0.75;0.75;;;;;;;;5086916;27;46259;-49
2024/04/07 10:11:15;;;;;;;;;7.00;1.00;;;;;;;;5094183;27;45250;-49
2024/04/07 10:13:40;;;;;;;;;1.00;0.00;;;;;;;;5073332;27;45495;-49
2024/04/07 10:16:05;;;;;;;;;2.50;1.25;;;;;;;;5095748;27;45390;-48
2024/04/07 10:18:31;;;;;;;;;1.25;0.75;;;;;;;;5095172;27;46184;-47
2024/04/07 10:20:57;;;;;;;;;1.25;0.00;;;;;;;;5091722;27;45401;-46
2024/04/07 10:23:25;;;;;;;;;2.00;0.00;;;;;;;;5091039;27;45421;-50
2024/04/07 10:25:55;;;;;;;;;0.00;0.00;;;;;;;;5086841;27;45411;-47
2024/04/07 10:28:20;;;;;;;;;0.50;0.50;;;;;;;;5087369;27;45422;-49
2024/04/07 10:30:50;;;;;;;;;0.00;0.00;;;;;;;;5087719;27;45531;-47
2024/04/07 10:33:15;;;;;;;;;1.00;1.00;;;;;;;;5090879;27;45290;-47
2024/04/07 10:35:56;;;;;;;;;0.50;0.50;;;;;;;;5074230;27;45318;-49
2024/04/07 10:38:22;;;;;;;;;3.00;1.50;;;;;;;;5096276;27;45521;-47
2024/04/07 10:40:47;;;;;;;;;2.00;1.00;;;;;;;;5083689;27;45488;-49
2024/04/07 10:43:12;;;;;;;;;0.25;0.25;;;;;;;;5096998;27;45370;-50
2024/04/07 10:45:38;;;;;;;;;2.00;1.00;;;;;;;;5099416;27;45384;-49
2024/04/07 10:48:03;;;;;;;;;2.00;2.00;;;;;;;;5091691;27;45276;-46
2024/04/07 10:50:29;;;;;;;;;3.50;1.25;;;;;;;;5085379;27;45750;-48
2024/04/07 10:53:07;;;;;;;;;1.25;1.25;;;;;;;;5094718;27;45306;-51
2024/04/07 10:55:33;;;;;;;;;1.25;1.25;;;;;;;;5075582;27;45397;-46
2024/04/07 10:57:58;;;;;;;;;1.25;1.00;;;;;;;;5097949;27;46863;-49
2024/04/07 11:00:24;;;;;;;;;1.00;1.00;;;;;;;;5102054;27;45670;-46
2024/04/07 11:02:49;;;;;;;;;1.75;1.75;;;;;;;;5101420;27;45389;-46
2024/04/07 11:05:14;;;;;;;;;1.00;1.00;;;;;;;;5099534;27;45325;-46
2024/04/07 11:07:39;;;;;;;;;1.00;1.00;;;;;;;;5098887;27;45440;-49
2024/04/07 11:10:05;;;;;;;;;0.25;0.25;;;;;;;;5102118;27;45409;-47
2024/04/07 11:12:30;;;;;;;;;4.67;1.00;;;;;;;;5101288;27;45437;-47
2024/04/07 11:14:55;;;;;;;;;6.00;1.00;;;;;;;;5081016;27;45380;-49
2024/04/07 11:17:20;;;;;;;;;1.00;1.00;;;;;;;;5101883;27;45442;-46
2024/04/07 11:19:47;;;;;;;;;2.75;0.00;;;;;;;;5102339;27;45500;-46
2024/04/07 11:22:12;;;;;;;;;1.33;1.00;;;;;;;;5101943;27;45503;-47
2024/04/07 11:24:38;;;;;;;;;1.00;1.00;;;;;;;;5102298;27;45193;-46
2024/04/07 11:27:04;;;;;;;;;1.25;1.00;;;;;;;;5098815;27;46474;-47
2024/04/07 11:29:29;;;;;;;;;3.00;2.00;;;;;;;;5099609;27;45493;-48
2024/04/07 11:31:57;;;;;;;;;3.75;1.25;;;;;;;;5102162;27;45472;-49
2024/04/07 11:34:22;;;;;;;;;1.25;1.25;;;;;;;;5100623;27;45354;-47
2024/04/07 11:36:48;;;;;;;;;1.00;1.00;;;;;;;;5101809;27;45858;-47
2024/04/07 11:39:16;;;;;;;;;2.50;1.75;;;;;;;;5097134;27;45408;-50
2024/04/07 11:41:42;;;;;;;;;1.00;1.00;;;;;;;;5101542;27;45610;-49
2024/04/07 11:44:07;;;;;;;;;0.00;0.00;;;;;;;;5101733;27;45322;-50
2024/04/07 11:46:32;;;;;;;;;6.00;1.25;;;;;;;;5101289;27;46563;-47
2024/04/07 11:48:58;;;;;;;;;2.00;2.00;;;;;;;;5099893;27;45274;-48
2024/04/07 11:51:23;;;;;;;;;2.25;1.25;;;;;;;;5101486;27;45345;-48
2024/04/07 11:53:48;;;;;;;;;2.67;1.67;;;;;;;;5099882;27;45506;-47
2024/04/07 11:56:13;;;;;;;;;1.75;1.00;;;;;;;;5094389;27;47306;-49
2024/04/07 11:58:39;;;;;;;;;1.00;1.00;;;;;;;;5094263;27;45211;-50
2024/04/07 12:01:04;;;;;;;;;0.75;0.75;;;;;;;;5101627;27;45466;-50
2024/04/07 12:03:29;;;;;;;;;0.25;0.00;;;;;;;;5092996;27;45540;-48
2024/04/07 12:05:54;;;;;;;;;1.75;0.25;;;;;;;;5097858;27;45287;-49
2024/04/07 12:08:19;;;;;;;;;2.33;0.33;;;;;;;;5097350;27;45206;-48
2024/04/07 12:10:45;;;;;;;;;2.25;1.00;;;;;;;;5097928;27;45583;-46
2024/04/07 12:13:11;;;;;;;;;0.50;0.00;;;;;;;;5097928;27;45567;-48
2024/04/07 12:15:37;;;;;;;;;1.50;0.00;;;;;;;;5098428;27;46495;-49
2024/04/07 12:18:02;;;;;;;;;2.00;2.00;;;;;;;;5097799;27;45456;-50
2024/04/07 12:20:27;;;;;;;;;3.00;1.00;;;;;;;;5098555;27;46604;-48
2024/04/07 12:22:52;;;;;;;;;3.75;2.00;;;;;;;;5083047;27;45508;-50
2024/04/07 12:25:17;;;;;;;;;1.00;1.00;;;;;;;;5098175;27;45414;-49
2024/04/07 12:27:42;;;;;;;;;0.50;0.50;;;;;;;;5098329;27;45474;-46
2024/04/07 12:30:08;;;;;;;;;1.00;1.00;;;;;;;;5097965;27;45350;-50
2024/04/07 12:32:33;;;;;;;;;1.67;1.00;;;;;;;;5098698;27;45615;-50
2024/04/07 12:34:59;;;;;;;;;2.00;1.00;;;;;;;;5101190;27;46267;-50
2024/04/07 12:37:24;;;;;;;;;2.00;2.00;;;;;;;;5098661;27;45307;-49
2024/04/07 12:39:50;;;;;;;;;2.00;2.00;;;;;;;;5100823;27;45456;-47
2024/04/07 12:42:15;;;;;;;;;1.25;1.25;;;;;;;;5078413;27;45363;-50
2024/04/07 12:44:40;;;;;;;;;3.00;1.00;;;;;;;;5100581;27;46447;-46
2024/04/07 12:47:05;;;;;;;;;1.00;1.00;;;;;;;;5100364;27;45327;-47
2024/04/07 12:49:31;;;;;;;;;1.50;1.50;;;;;;;;5099463;27;45500;-48
2024/04/07 12:51:56;;;;;;;;;2.00;2.00;;;;;;;;5096543;27;45264;-51
2024/04/07 12:54:21;;;;;;;;;2.00;2.00;;;;;;;;5097664;27;47017;-47
2024/04/07 12:56:47;;;;;;;;;3.50;2.00;;;;;;;;5095825;27;45407;-46
2024/04/07 12:59:12;;;;;;;;;0.50;0.00;;;;;;;;5100318;27;45409;-46
2024/04/07 13:01:37;;;;;;;;;1.00;1.00;;;;;;;;5097087;27;45457;-48
2024/04/07 13:04:03;;;;;;;;;0.00;0.00;;;;;;;;5099573;27;45254;-46
2024/04/07 13:06:28;;;;;;;;;1.75;0.75;;;;;;;;5093332;27;45642;-50
2024/04/07 13:08:53;;;;;;;;;3.00;0.50;;;;;;;;5082518;27;45384;-50
2024/04/07 13:11:18;;;;;;;;;4.00;2.00;;;;;;;;5099681;27;45410;-48
2024/04/07 13:13:44;;;;;;;;;3.50;1.00;;;;;;;;5099860;27;45470;-47
2024/04/07 13:16:09;;;;;;;;;2.50;1.00;;;;;;;;5099804;27;45377;-47
2024/04/07 13:18:34;;;;;;;;;1.00;1.00;;;;;;;;5100634;27;45435;-46
2024/04/07 13:20:59;;;;;;;;;1.25;0.00;;;;;;;;5100421;27;45417;-46
2024/04/07 13:23:25;;;;;;;;;1.00;1.00;;;;;;;;5081549;27;47373;-47
2024/04/07 13:25:50;;;;;;;;;2.25;2.25;;;;;;;;5095209;27;45415;-49
2024/04/07 13:28:15;;;;;;;;;1.00;1.00;;;;;;;;5097981;27;45299;-47
2024/04/07 13:30:40;;;;;;;;;1.25;0.25;;;;;;;;5095027;27;45413;-48
2024/04/07 13:33:06;;;;;;;;;1.25;1.00;;;;;;;;5099834;27;46176;-48
2024/04/07 13:35:31;;;;;;;;;0.50;0.50;;;;;;;;5099618;27;45420;-49
2024/04/07 13:37:57;;;;;;;;;3.75;2.00;;;;;;;;5095595;27;45398;-49
2024/04/07 13:40:22;;;;;;;;;2.00;1.00;;;;;;;;5077277;27;45585;-48
2024/04/07 13:42:47;;;;;;;;;1.25;1.00;;;;;;;;5099764;27;45421;-50
2024/04/07 13:45:13;;;;;;;;;3.00;1.00;;;;;;;;5097765;27;45449;-46
2024/04/07 13:47:38;;;;;;;;;3.50;1.00;;;;;;;;5093896;27;45703;-46
2024/04/07 13:50:04;;;;;;;;;2.00;1.00;;;;;;;;5095103;27;45377;-49
2024/04/07 13:52:29;;;;;;;;;3.00;1.00;;;;;;;;5094771;27;46202;-47
2024/04/07 13:54:58;;;;;;;;;0.00;0.00;;;;;;;;5096621;27;45564;-47
2024/04/07 13:57:23;;;;;;;;;2.00;2.00;;;;;;;;5091446;27;45281;-47
2024/04/07 13:59:48;;;;;;;;;3.75;2.00;;;;;;;;5096430;27;45538;-46
2024/04/07 14:02:13;;;;;;;;;2.00;0.50;;;;;;;;5099529;27;45805;-50
2024/04/07 14:04:38;;;;;;;;;1.75;1.75;;;;;;;;5099730;27;45197;-46
2024/04/07 14:07:03;;;;;;;;;1.00;1.00;;;;;;;;5099633;27;45250;-47
2024/04/07 14:09:28;;;;;;;;;1.50;1.00;;;;;;;;5096840;27;45333;-50
2024/04/07 14:11:54;;;;;;;;;3.00;2.00;;;;;;;;5098459;27;46421;-48
2024/04/07 14:14:19;;;;;;;;;3.25;2.00;;;;;;;;5098883;27;45411;-49
2024/04/07 14:16:44;;;;;;;;;2.75;2.00;;;;;;;;5096253;27;45569;-50
2024/04/07 14:19:09;;;;;;;;;3.25;2.25;;;;;;;;5099105;27;45198;-49
2024/04/07 14:21:35;;;;;;;;;2.00;1.00;;;;;;;;5096031;27;46394;-47
2024/04/07 14:24:03;;;;;;;;;2.75;2.00;;;;;;;;5099364;27;45338;-49
2024/04/07 14:26:28;;;;;;;;;3.50;1.75;;;;;;;;5099547;27;45393;-48
2024/04/07 14:28:53;;;;;;;;;3.75;2.50;;;;;;;;5082211;27;45414;-49
2024/04/07 14:31:18;;;;;;;;;2.25;2.00;;;;;;;;5078854;27;46448;-49
2024/04/07 14:33:43;;;;;;;;;1.25;1.25;;;;;;;;5099492;27;45332;-50
2024/04/07 14:36:09;;;;;;;;;2.00;1.00;;;;;;;;5102592;27;45437;-48